sensor_id;sensor_type;location;lat;lon;timestamp;pressure;altitude;pressure_sealevel;temperature;humidity
9676;BME280;4876;42.656;23.292;2024-01-30T00:01:15;96300.31;;;-1.09;61.01
9676;BME280;4876;42.656;23.292;2024-01-30T00:03:40;96288.97;;;-1.28;62.02
9676;BME280;4876;42.656;23.292;2024-01-30T00:06:07;96292.97;;;-1.24;61.83
9676;BME280;4876;42.656;23.292;2024-01-30T00:08:33;96292.69;;;-1.26;63.24
9676;BME280;4876;42.656;23.292;2024-01-30T00:10:58;96296.09;;;-1.10;61.36
9676;BME280;4876;42.656;23.292;2024-01-30T00:13:24;96302.84;;;-1.06;61.57
9676;BME280;4876;42.656;23.292;2024-01-30T00:15:49;96302.41;;;-0.99;61.18
9676;BME280;4876;42.656;23.292;2024-01-30T00:18:15;96311.66;;;-0.91;61.51
9676;BME280;4876;42.656;23.292;2024-01-30T00:20:41;96307.75;;;-0.84;62.35
9676;BME280;4876;42.656;23.292;2024-01-30T00:23:08;96307.09;;;-0.79;62.20
9676;BME280;4876;42.656;23.292;2024-01-30T00:25:33;96305.63;;;-0.75;60.33
9676;BME280;4876;42.656;23.292;2024-01-30T00:27:59;96301.78;;;-0.63;59.96
9676;BME280;4876;42.656;23.292;2024-01-30T00:30:25;96303.34;;;-0.56;60.11
9676;BME280;4876;42.656;23.292;2024-01-30T00:32:50;96300.19;;;-0.49;59.00
9676;BME280;4876;42.656;23.292;2024-01-30T00:35:16;96297.59;;;-0.64;59.39
9676;BME280;4876;42.656;23.292;2024-01-30T00:37:41;96304.78;;;-0.61;59.07
9676;BME280;4876;42.656;23.292;2024-01-30T00:40:07;96306.16;;;-0.96;60.86
9676;BME280;4876;42.656;23.292;2024-01-30T00:42:33;96300.91;;;-1.00;61.64
9676;BME280;4876;42.656;23.292;2024-01-30T00:44:58;96302.41;;;-0.99;61.01
9676;BME280;4876;42.656;23.292;2024-01-30T00:47:24;96295.34;;;-1.11;60.46
9676;BME280;4876;42.656;23.292;2024-01-30T00:49:49;96301.59;;;-1.05;61.74
9676;BME280;4876;42.656;23.292;2024-01-30T00:52:15;96294.75;;;-0.95;60.50
9676;BME280;4876;42.656;23.292;2024-01-30T00:54:42;96295.44;;;-0.80;59.77
9676;BME280;4876;42.656;23.292;2024-01-30T00:57:08;96298.69;;;-0.76;59.92
9676;BME280;4876;42.656;23.292;2024-01-30T00:59:34;96293.47;;;-0.79;60.64
9676;BME280;4876;42.656;23.292;2024-01-30T01:01:59;96298.38;;;-0.83;61.09
9676;BME280;4876;42.656;23.292;2024-01-30T01:04:25;96291.09;;;-0.92;59.89
9676;BME280;4876;42.656;23.292;2024-01-30T01:06:52;96289.06;;;-0.97;59.66
9676;BME280;4876;42.656;23.292;2024-01-30T01:09:17;96291.94;;;-1.06;61.02
9676;BME280;4876;42.656;23.292;2024-01-30T01:11:43;96286.50;;;-1.06;61.23
9676;BME280;4876;42.656;23.292;2024-01-30T01:14:08;96288.94;;;-1.08;61.92
9676;BME280;4876;42.656;23.292;2024-01-30T01:16:34;96289.56;;;-1.18;61.50
9676;BME280;4876;42.656;23.292;2024-01-30T01:18:59;96293.19;;;-1.27;63.55
9676;BME280;4876;42.656;23.292;2024-01-30T01:21:25;96291.38;;;-1.10;62.44
9676;BME280;4876;42.656;23.292;2024-01-30T01:23:51;96293.84;;;-1.12;62.13
9676;BME280;4876;42.656;23.292;2024-01-30T01:26:17;96290.63;;;-1.10;62.30
9676;BME280;4876;42.656;23.292;2024-01-30T01:28:42;96287.97;;;-1.05;61.90
9676;BME280;4876;42.656;23.292;2024-01-30T01:31:09;96298.81;;;-1.10;61.77
9676;BME280;4876;42.656;23.292;2024-01-30T01:33:34;96293.84;;;-1.12;60.96
9676;BME280;4876;42.656;23.292;2024-01-30T01:36:02;96289.56;;;-1.18;61.90
9676;BME280;4876;42.656;23.292;2024-01-30T01:38:28;96298.91;;;-1.25;61.25
9676;BME280;4876;42.656;23.292;2024-01-30T01:40:54;96286.22;;;-1.28;61.90
9676;BME280;4876;42.656;23.292;2024-01-30T01:43:20;96296.84;;;-1.30;61.55
9676;BME280;4876;42.656;23.292;2024-01-30T01:45:45;96292.16;;;-1.30;60.84
9676;BME280;4876;42.656;23.292;2024-01-30T01:48:11;96296.44;;;-1.43;60.92
9676;BME280;4876;42.656;23.292;2024-01-30T01:50:38;96288.97;;;-1.48;62.14
9676;BME280;4876;42.656;23.292;2024-01-30T01:53:05;96296.03;;;-1.56;61.75
9676;BME280;4876;42.656;23.292;2024-01-30T01:55:33;96286.78;;;-1.64;61.56
9676;BME280;4876;42.656;23.292;2024-01-30T01:58:00;96294.78;;;-1.75;62.20
9676;BME280;4876;42.656;23.292;2024-01-30T02:00:25;96293.94;;;-1.81;62.30
9676;BME280;4876;42.656;23.292;2024-01-30T02:02:51;96300.50;;;-1.73;62.41
9676;BME280;4876;42.656;23.292;2024-01-30T02:05:19;96295.88;;;-1.67;62.18
9676;BME280;4876;42.656;23.292;2024-01-30T02:07:46;96301.72;;;-1.74;62.34
9676;BME280;4876;42.656;23.292;2024-01-30T02:10:12;96304.63;;;-1.78;63.36
9676;BME280;4876;42.656;23.292;2024-01-30T02:12:38;96304.91;;;-1.76;62.75
9676;BME280;4876;42.656;23.292;2024-01-30T02:15:04;96305.66;;;-1.75;61.99
9676;BME280;4876;42.656;23.292;2024-01-30T02:17:30;96304.03;;;-1.67;62.49
9676;BME280;4876;42.656;23.292;2024-01-30T02:19:56;96300.38;;;-1.64;62.41
9676;BME280;4876;42.656;23.292;2024-01-30T02:22:22;96302.63;;;-1.63;62.83
9676;BME280;4876;42.656;23.292;2024-01-30T02:24:48;96305.56;;;-1.66;62.11
9676;BME280;4876;42.656;23.292;2024-01-30T02:27:13;96300.91;;;-1.60;61.62
9676;BME280;4876;42.656;23.292;2024-01-30T02:29:39;96296.44;;;-1.63;61.62
9676;BME280;4876;42.656;23.292;2024-01-30T02:32:04;96286.91;;;-1.73;62.21
9676;BME280;4876;42.656;23.292;2024-01-30T02:34:31;96294.88;;;-1.70;62.12
9676;BME280;4876;42.656;23.292;2024-01-30T02:36:56;96293.06;;;-1.58;62.10
9676;BME280;4876;42.656;23.292;2024-01-30T02:39:22;96292.69;;;-1.66;61.88
9676;BME280;4876;42.656;23.292;2024-01-30T02:41:47;96291.28;;;-1.61;62.91
9676;BME280;4876;42.656;23.292;2024-01-30T02:44:13;96288.81;;;-1.79;63.06
9676;BME280;4876;42.656;23.292;2024-01-30T02:46:38;96296.88;;;-1.85;63.12
9676;BME280;4876;42.656;23.292;2024-01-30T02:49:03;96296.66;;;-1.81;63.51
9676;BME280;4876;42.656;23.292;2024-01-30T02:51:29;96301.09;;;-1.84;62.66
9676;BME280;4876;42.656;23.292;2024-01-30T02:53:54;96290.97;;;-1.83;62.87
9676;BME280;4876;42.656;23.292;2024-01-30T02:56:20;96294.63;;;-1.87;63.96
9676;BME280;4876;42.656;23.292;2024-01-30T02:58:46;96302.25;;;-1.91;62.85
9676;BME280;4876;42.656;23.292;2024-01-30T03:01:11;96296.41;;;-1.83;62.88
9676;BME280;4876;42.656;23.292;2024-01-30T03:03:37;96293.13;;;-1.88;62.56
9676;BME280;4876;42.656;23.292;2024-01-30T03:06:02;96297.81;;;-1.88;62.43
9676;BME280;4876;42.656;23.292;2024-01-30T03:08:28;96293.59;;;-1.89;62.02
9676;BME280;4876;42.656;23.292;2024-01-30T03:10:54;96274.09;;;-1.88;63.09
9676;BME280;4876;42.656;23.292;2024-01-30T03:13:19;96290.22;;;-1.84;62.32
9676;BME280;4876;42.656;23.292;2024-01-30T03:15:45;96293.59;;;-1.89;62.21
9676;BME280;4876;42.656;23.292;2024-01-30T03:18:10;96292.84;;;-1.90;61.48
9676;BME280;4876;42.656;23.292;2024-01-30T03:20:36;96287.22;;;-1.86;61.64
9676;BME280;4876;42.656;23.292;2024-01-30T03:23:01;96273.00;;;-1.96;61.78
9676;BME280;4876;42.656;23.292;2024-01-30T03:25:28;96284.50;;;-1.86;61.51
9676;BME280;4876;42.656;23.292;2024-01-30T03:27:53;96287.84;;;-1.76;61.84
9676;BME280;4876;42.656;23.292;2024-01-30T03:30:19;96290.00;;;-1.80;61.27
9676;BME280;4876;42.656;23.292;2024-01-30T03:32:44;96287.97;;;-1.86;61.58
9676;BME280;4876;42.656;23.292;2024-01-30T03:35:10;96279.47;;;-1.93;62.06
9676;BME280;4876;42.656;23.292;2024-01-30T03:37:35;96278.03;;;-1.89;62.06
9676;BME280;4876;42.656;23.292;2024-01-30T03:40:01;96286.69;;;-1.90;61.89
9676;BME280;4876;42.656;23.292;2024-01-30T03:42:27;96279.75;;;-1.91;61.45
9676;BME280;4876;42.656;23.292;2024-01-30T03:44:53;96273.16;;;-1.84;60.78
9676;BME280;4876;42.656;23.292;2024-01-30T03:47:20;96274.56;;;-1.89;60.36
9676;BME280;4876;42.656;23.292;2024-01-30T03:49:46;96270.72;;;-1.82;61.17
9676;BME280;4876;42.656;23.292;2024-01-30T03:52:11;96268.94;;;-1.86;60.79
9676;BME280;4876;42.656;23.292;2024-01-30T03:54:37;96269.44;;;-1.67;61.61
9676;BME280;4876;42.656;23.292;2024-01-30T03:57:03;96272.50;;;-1.59;59.73
9676;BME280;4876;42.656;23.292;2024-01-30T03:59:28;96270.13;;;-1.72;60.25
9676;BME280;4876;42.656;23.292;2024-01-30T04:01:54;96266.91;;;-1.70;59.87
9676;BME280;4876;42.656;23.292;2024-01-30T04:04:19;96270.78;;;-1.77;60.11
9676;BME280;4876;42.656;23.292;2024-01-30T04:06:45;96272.34;;;-1.70;59.65
9676;BME280;4876;42.656;23.292;2024-01-30T04:09:12;96266.91;;;-1.70;60.48
9676;BME280;4876;42.656;23.292;2024-01-30T04:11:39;96264.41;;;-1.74;59.53
9676;BME280;4876;42.656;23.292;2024-01-30T04:14:04;96257.66;;;-1.78;58.58
9676;BME280;4876;42.656;23.292;2024-01-30T04:16:30;96267.16;;;-1.89;60.27
9676;BME280;4876;42.656;23.292;2024-01-30T04:18:55;96261.06;;;-1.83;59.82
9676;BME280;4876;42.656;23.292;2024-01-30T04:21:21;96263.31;;;-1.62;58.62
9676;BME280;4876;42.656;23.292;2024-01-30T04:23:47;96261.00;;;-1.69;59.18
9676;BME280;4876;42.656;23.292;2024-01-30T04:26:13;96269.69;;;-1.65;59.31
9676;BME280;4876;42.656;23.292;2024-01-30T04:28:41;96266.78;;;-1.61;59.90
9676;BME280;4876;42.656;23.292;2024-01-30T04:31:07;96271.41;;;-1.67;60.50
9676;BME280;4876;42.656;23.292;2024-01-30T04:33:32;96281.06;;;-1.66;60.09
9676;BME280;4876;42.656;23.292;2024-01-30T04:35:58;96276.44;;;-1.60;59.94
9676;BME280;4876;42.656;23.292;2024-01-30T04:38:23;96273.63;;;-1.66;60.20
9676;BME280;4876;42.656;23.292;2024-01-30T04:40:49;96279.56;;;-1.67;58.96
9676;BME280;4876;42.656;23.292;2024-01-30T04:43:14;96276.00;;;-1.73;60.04
9676;BME280;4876;42.656;23.292;2024-01-30T04:45:41;96276.84;;;-1.67;60.12
9676;BME280;4876;42.656;23.292;2024-01-30T04:48:07;96278.19;;;-1.77;59.38
9676;BME280;4876;42.656;23.292;2024-01-30T04:50:32;96281.25;;;-1.70;60.31
9676;BME280;4876;42.656;23.292;2024-01-30T04:52:58;96290.94;;;-1.69;59.15
9676;BME280;4876;42.656;23.292;2024-01-30T04:55:24;96275.59;;;-1.87;60.13
9676;BME280;4876;42.656;23.292;2024-01-30T04:57:49;96287.41;;;-1.90;60.98
9676;BME280;4876;42.656;23.292;2024-01-30T05:00:15;96299.53;;;-1.70;59.44
9676;BME280;4876;42.656;23.292;2024-01-30T05:02:41;96297.31;;;-1.72;59.49
9676;BME280;4876;42.656;23.292;2024-01-30T05:05:06;96309.47;;;-1.67;59.46
9676;BME280;4876;42.656;23.292;2024-01-30T05:07:33;96302.06;;;-1.87;61.38
9676;BME280;4876;42.656;23.292;2024-01-30T05:09:59;96300.81;;;-1.86;61.00
9676;BME280;4876;42.656;23.292;2024-01-30T05:12:28;96305.66;;;-1.75;60.02
9676;BME280;4876;42.656;23.292;2024-01-30T05:14:53;96304.09;;;-1.82;59.42
9676;BME280;4876;42.656;23.292;2024-01-30T05:17:19;96311.50;;;-1.82;58.92
9676;BME280;4876;42.656;23.292;2024-01-30T05:19:44;96305.72;;;-1.90;57.43
9676;BME280;4876;42.656;23.292;2024-01-30T05:22:10;96308.44;;;-2.05;58.52
9676;BME280;4876;42.656;23.292;2024-01-30T05:24:36;96310.34;;;-2.11;60.72
9676;BME280;4876;42.656;23.292;2024-01-30T05:27:02;96320.59;;;-1.86;58.95
9676;BME280;4876;42.656;23.292;2024-01-30T05:29:27;96315.03;;;-1.76;58.92
9676;BME280;4876;42.656;23.292;2024-01-30T05:31:53;96306.16;;;-1.92;60.22
9676;BME280;4876;42.656;23.292;2024-01-30T05:34:18;96305.22;;;-1.89;58.91
9676;BME280;4876;42.656;23.292;2024-01-30T05:36:44;96305.31;;;-1.83;59.18
9676;BME280;4876;42.656;23.292;2024-01-30T05:39:09;96311.38;;;-1.73;57.49
9676;BME280;4876;42.656;23.292;2024-01-30T05:41:35;96311.88;;;-1.90;58.90
9676;BME280;4876;42.656;23.292;2024-01-30T05:44:01;96316.97;;;-1.97;59.95
9676;BME280;4876;42.656;23.292;2024-01-30T05:46:27;96310.97;;;-2.01;59.60
9676;BME280;4876;42.656;23.292;2024-01-30T05:48:52;96311.81;;;-1.95;60.23
9676;BME280;4876;42.656;23.292;2024-01-30T05:51:18;96310.41;;;-1.91;60.12
9676;BME280;4876;42.656;23.292;2024-01-30T05:53:43;96297.66;;;-1.99;59.11
9676;BME280;4876;42.656;23.292;2024-01-30T05:56:09;96311.88;;;-1.90;59.18
9676;BME280;4876;42.656;23.292;2024-01-30T05:58:34;96301.22;;;-1.93;60.66
9676;BME280;4876;42.656;23.292;2024-01-30T06:01:00;96294.16;;;-1.85;59.02
9676;BME280;4876;42.656;23.292;2024-01-30T06:03:26;96306.41;;;-1.75;59.58
9676;BME280;4876;42.656;23.292;2024-01-30T06:05:51;96298.06;;;-1.71;59.11
9676;BME280;4876;42.656;23.292;2024-01-30T06:08:17;96300.22;;;-1.75;59.21
9676;BME280;4876;42.656;23.292;2024-01-30T06:10:43;96292.47;;;-1.82;59.93
9676;BME280;4876;42.656;23.292;2024-01-30T06:13:08;96304.78;;;-1.67;59.95
9676;BME280;4876;42.656;23.292;2024-01-30T06:15:34;96303.50;;;-1.71;58.83
9676;BME280;4876;42.656;23.292;2024-01-30T06:18:00;96309.00;;;-1.66;59.18
9676;BME280;4876;42.656;23.292;2024-01-30T06:20:25;96301.59;;;-1.65;59.79
9676;BME280;4876;42.656;23.292;2024-01-30T06:22:51;96309.59;;;-1.76;60.51
9676;BME280;4876;42.656;23.292;2024-01-30T06:25:16;96319.50;;;-1.94;59.58
9676;BME280;4876;42.656;23.292;2024-01-30T06:27:42;96325.16;;;-2.12;60.73
9676;BME280;4876;42.656;23.292;2024-01-30T06:30:11;96319.53;;;-2.23;61.10
9676;BME280;4876;42.656;23.292;2024-01-30T06:32:37;96318.41;;;-2.31;61.30
9676;BME280;4876;42.656;23.292;2024-01-30T06:35:03;96317.28;;;-2.39;62.39
9676;BME280;4876;42.656;23.292;2024-01-30T06:37:29;96306.53;;;-2.48;62.74
9676;BME280;4876;42.656;23.292;2024-01-30T06:39:54;96318.81;;;-2.38;63.33
9676;BME280;4876;42.656;23.292;2024-01-30T06:42:20;96320.00;;;-2.39;63.63
9676;BME280;4876;42.656;23.292;2024-01-30T06:44:46;96317.78;;;-2.40;63.55
9676;BME280;4876;42.656;23.292;2024-01-30T06:47:13;96323.84;;;-2.31;61.78
9676;BME280;4876;42.656;23.292;2024-01-30T06:49:42;96320.97;;;-2.27;62.25
9676;BME280;4876;42.656;23.292;2024-01-30T06:52:09;96316.38;;;-2.21;61.66
9676;BME280;4876;42.656;23.292;2024-01-30T06:54:34;96326.56;;;-2.16;61.63
9676;BME280;4876;42.656;23.292;2024-01-30T06:57:00;96318.66;;;-2.00;59.98
9676;BME280;4876;42.656;23.292;2024-01-30T06:59:26;96310.34;;;-2.11;60.04
9676;BME280;4876;42.656;23.292;2024-01-30T07:01:51;96325.72;;;-1.73;59.97
9676;BME280;4876;42.656;23.292;2024-01-30T07:04:17;96320.34;;;-1.88;57.75
9676;BME280;4876;42.656;23.292;2024-01-30T07:06:43;96326.72;;;-1.91;58.47
9676;BME280;4876;42.656;23.292;2024-01-30T07:09:09;96327.56;;;-1.84;57.76
9676;BME280;4876;42.656;23.292;2024-01-30T07:11:35;96327.69;;;-1.73;57.76
9676;BME280;4876;42.656;23.292;2024-01-30T07:14:00;96332.84;;;-1.75;57.66
9676;BME280;4876;42.656;23.292;2024-01-30T07:16:29;96323.09;;;-1.67;57.29
9676;BME280;4876;42.656;23.292;2024-01-30T07:18:54;96327.84;;;-1.62;58.07
9676;BME280;4876;42.656;23.292;2024-01-30T07:21:21;96317.53;;;-1.58;56.21
9676;BME280;4876;42.656;23.292;2024-01-30T07:23:56;96330.16;;;-1.55;55.48
9676;BME280;4876;42.656;23.292;2024-01-30T07:26:22;96327.47;;;-1.35;55.62
9676;BME280;4876;42.656;23.292;2024-01-30T07:28:48;96337.13;;;-1.34;55.06
9676;BME280;4876;42.656;23.292;2024-01-30T07:31:13;96325.22;;;-1.37;53.50
9676;BME280;4876;42.656;23.292;2024-01-30T07:33:39;96327.25;;;-1.32;54.12
9676;BME280;4876;42.656;23.292;2024-01-30T07:36:05;96330.38;;;-1.39;54.02
9676;BME280;4876;42.656;23.292;2024-01-30T07:38:33;96328.16;;;-1.20;53.65
9676;BME280;4876;42.656;23.292;2024-01-30T07:40:59;96326.84;;;-1.04;53.40
9676;BME280;4876;42.656;23.292;2024-01-30T07:43:25;96325.97;;;-0.96;53.40
9676;BME280;4876;42.656;23.292;2024-01-30T07:45:50;96329.22;;;-0.92;53.20
9676;BME280;4876;42.656;23.292;2024-01-30T07:48:16;96322.81;;;-0.89;52.59
9676;BME280;4876;42.656;23.292;2024-01-30T07:50:42;96317.91;;;-0.85;52.47
9676;BME280;4876;42.656;23.292;2024-01-30T07:53:07;96321.66;;;-0.82;53.10
9676;BME280;4876;42.656;23.292;2024-01-30T07:55:33;96308.94;;;-0.91;53.46
9676;BME280;4876;42.656;23.292;2024-01-30T07:57:58;96319.63;;;-0.62;53.10
9676;BME280;4876;42.656;23.292;2024-01-30T08:00:24;96327.88;;;-0.56;51.30
9676;BME280;4876;42.656;23.292;2024-01-30T08:02:50;96327.00;;;-0.68;52.08
9676;BME280;4876;42.656;23.292;2024-01-30T08:05:15;96311.16;;;-0.69;52.59
9676;BME280;4876;42.656;23.292;2024-01-30T08:07:41;96319.16;;;-1.06;52.95
9676;BME280;4876;42.656;23.292;2024-01-30T08:10:11;96312.78;;;-1.03;52.48
9676;BME280;4876;42.656;23.292;2024-01-30T08:12:38;96310.25;;;-1.06;52.07
9676;BME280;4876;42.656;23.292;2024-01-30T08:15:04;96327.19;;;-0.97;52.76
9676;BME280;4876;42.656;23.292;2024-01-30T08:17:30;96318.22;;;-1.03;52.06
9676;BME280;4876;42.656;23.292;2024-01-30T08:19:56;96320.66;;;-0.85;52.20
9676;BME280;4876;42.656;23.292;2024-01-30T08:22:21;96316.09;;;-0.93;52.82
9676;BME280;4876;42.656;23.292;2024-01-30T08:24:47;96319.91;;;-0.59;51.92
9676;BME280;4876;42.656;23.292;2024-01-30T08:27:12;96311.72;;;-0.34;50.86
9676;BME280;4876;42.656;23.292;2024-01-30T08:29:38;96317.72;;;-0.55;51.55
9676;BME280;4876;42.656;23.292;2024-01-30T08:32:06;96328.94;;;-0.48;51.72
9676;BME280;4876;42.656;23.292;2024-01-30T08:34:32;96322.47;;;-0.50;51.87
9676;BME280;4876;42.656;23.292;2024-01-30T08:36:57;96317.75;;;-0.50;51.87
9676;BME280;4876;42.656;23.292;2024-01-30T08:39:23;96317.22;;;-0.28;50.18
9676;BME280;4876;42.656;23.292;2024-01-30T08:41:48;96332.56;;;-0.56;50.50
9676;BME280;4876;42.656;23.292;2024-01-30T08:44:14;96323.06;;;-0.67;51.67
9676;BME280;4876;42.656;23.292;2024-01-30T08:46:39;96332.69;;;-0.45;50.89
9676;BME280;4876;42.656;23.292;2024-01-30T08:49:05;96331.81;;;-0.31;50.25
9676;BME280;4876;42.656;23.292;2024-01-30T08:51:30;96338.66;;;-0.41;49.58
9676;BME280;4876;42.656;23.292;2024-01-30T08:53:56;96330.31;;;-0.32;51.24
9676;BME280;4876;42.656;23.292;2024-01-30T08:56:22;96333.16;;;-0.21;50.61
9676;BME280;4876;42.656;23.292;2024-01-30T08:58:47;96328.25;;;-0.12;49.59
9676;BME280;4876;42.656;23.292;2024-01-30T09:01:13;96337.72;;;-0.07;49.13
9676;BME280;4876;42.656;23.292;2024-01-30T09:03:39;96331.91;;;-0.20;49.90
9676;BME280;4876;42.656;23.292;2024-01-30T09:06:10;96333.47;;;-0.14;50.82
9676;BME280;4876;42.656;23.292;2024-01-30T09:08:35;96338.06;;;0.06;49.46
9676;BME280;4876;42.656;23.292;2024-01-30T09:11:08;96343.38;;;0.21;48.70
9676;BME280;4876;42.656;23.292;2024-01-30T09:13:33;96339.31;;;0.11;48.94
9676;BME280;4876;42.656;23.292;2024-01-30T09:15:59;96339.19;;;0.25;49.00
9676;BME280;4876;42.656;23.292;2024-01-30T09:18:24;96331.50;;;0.24;49.29
9676;BME280;4876;42.656;23.292;2024-01-30T09:20:50;96338.66;;;0.21;49.05
9676;BME280;4876;42.656;23.292;2024-01-30T09:23:16;96332.19;;;0.19;50.79
9676;BME280;4876;42.656;23.292;2024-01-30T09:25:42;96318.09;;;-0.11;50.72
9676;BME280;4876;42.656;23.292;2024-01-30T09:28:08;96319.69;;;0.01;51.33
9676;BME280;4876;42.656;23.292;2024-01-30T09:30:34;96321.19;;;0.02;51.53
9676;BME280;4876;42.656;23.292;2024-01-30T09:32:59;96313.22;;;-0.02;51.61
9676;BME280;4876;42.656;23.292;2024-01-30T09:35:25;96320.59;;;0.24;49.87
9676;BME280;4876;42.656;23.292;2024-01-30T09:37:50;96322.66;;;0.03;49.45
9676;BME280;4876;42.656;23.292;2024-01-30T09:40:17;96316.28;;;0.12;49.97
9676;BME280;4876;42.656;23.292;2024-01-30T09:42:46;96319.94;;;0.03;51.16
9676;BME280;4876;42.656;23.292;2024-01-30T09:45:13;96317.28;;;0.14;52.06
9676;BME280;4876;42.656;23.292;2024-01-30T09:47:43;96331.34;;;0.02;52.07
9676;BME280;4876;42.656;23.292;2024-01-30T09:50:10;96308.75;;;0.01;54.14
9676;BME280;4876;42.656;23.292;2024-01-30T09:52:36;96304.31;;;0.40;52.52
9676;BME280;4876;42.656;23.292;2024-01-30T09:55:03;96308.59;;;0.10;52.88
9676;BME280;4876;42.656;23.292;2024-01-30T09:57:28;96314.59;;;-0.17;52.59
9676;BME280;4876;42.656;23.292;2024-01-30T09:59:54;96326.28;;;-0.42;54.39
9676;BME280;4876;42.656;23.292;2024-01-30T10:02:20;96325.28;;;-0.39;53.91
9676;BME280;4876;42.656;23.292;2024-01-30T10:04:50;96310.44;;;-0.38;54.73
9676;BME280;4876;42.656;23.292;2024-01-30T10:07:17;96302.91;;;-0.49;54.82
9676;BME280;4876;42.656;23.292;2024-01-30T10:09:42;96301.41;;;-0.24;54.34
9676;BME280;4876;42.656;23.292;2024-01-30T10:12:11;96304.53;;;-0.31;54.00
9676;BME280;4876;42.656;23.292;2024-01-30T10:14:38;96294.88;;;-0.32;54.22
9676;BME280;4876;42.656;23.292;2024-01-30T10:17:04;96286.69;;;-0.01;52.81
9676;BME280;4876;42.656;23.292;2024-01-30T10:19:31;96294.66;;;0.08;53.13
9676;BME280;4876;42.656;23.292;2024-01-30T10:21:57;96290.59;;;0.24;51.97
9676;BME280;4876;42.656;23.292;2024-01-30T10:24:26;96288.53;;;0.61;52.50
9676;BME280;4876;42.656;23.292;2024-01-30T10:26:53;96286.03;;;0.57;51.60
9676;BME280;4876;42.656;23.292;2024-01-30T10:29:18;96292.09;;;0.30;51.52
9676;BME280;4876;42.656;23.292;2024-01-30T10:31:44;96300.44;;;0.16;50.68
9676;BME280;4876;42.656;23.292;2024-01-30T10:34:10;96295.53;;;0.25;51.84
9676;BME280;4876;42.656;23.292;2024-01-30T10:36:40;96299.63;;;0.46;51.25
9676;BME280;4876;42.656;23.292;2024-01-30T10:39:09;96293.00;;;0.64;50.87
9676;BME280;4876;42.656;23.292;2024-01-30T10:41:43;96292.97;;;0.58;50.90
9676;BME280;4876;42.656;23.292;2024-01-30T10:44:10;96296.69;;;0.55;50.96
9676;BME280;4876;42.656;23.292;2024-01-30T10:46:42;96300.53;;;0.32;51.09
9676;BME280;4876;42.656;23.292;2024-01-30T10:49:10;96278.09;;;0.59;51.00
9676;BME280;4876;42.656;23.292;2024-01-30T10:51:37;96291.13;;;0.92;49.95
9676;BME280;4876;42.656;23.292;2024-01-30T10:54:04;96288.84;;;0.26;52.13
9676;BME280;4876;42.656;23.292;2024-01-30T10:56:32;96291.31;;;0.24;51.65
9676;BME280;4876;42.656;23.292;2024-01-30T10:58:58;96272.50;;;-0.05;52.66
9676;BME280;4876;42.656;23.292;2024-01-30T11:01:25;96270.09;;;0.45;51.82
9676;BME280;4876;42.656;23.292;2024-01-30T11:03:53;96265.66;;;0.53;52.13
9676;BME280;4876;42.656;23.292;2024-01-30T11:06:22;96257.41;;;0.36;51.85
9676;BME280;4876;42.656;23.292;2024-01-30T11:09:01;96254.16;;;0.32;51.40
9676;BME280;4876;42.656;23.292;2024-01-30T11:11:29;96252.97;;;0.44;51.23
9676;BME280;4876;42.656;23.292;2024-01-30T11:13:54;96261.78;;;0.23;52.42
9676;BME280;4876;42.656;23.292;2024-01-30T11:16:20;96246.91;;;0.18;52.48
9676;BME280;4876;42.656;23.292;2024-01-30T11:18:50;96249.47;;;0.38;51.30
9676;BME280;4876;42.656;23.292;2024-01-30T11:21:16;96271.03;;;0.31;52.20
9676;BME280;4876;42.656;23.292;2024-01-30T11:23:42;96258.66;;;0.41;51.45
9676;BME280;4876;42.656;23.292;2024-01-30T11:26:10;96257.66;;;0.38;52.24
9676;BME280;4876;42.656;23.292;2024-01-30T11:28:37;96253.25;;;0.52;51.76
9676;BME280;4876;42.656;23.292;2024-01-30T11:31:06;96253.72;;;0.50;51.68
9676;BME280;4876;42.656;23.292;2024-01-30T11:33:35;96251.22;;;0.41;51.83
9676;BME280;4876;42.656;23.292;2024-01-30T11:36:01;96249.41;;;0.27;52.73
9676;BME280;4876;42.656;23.292;2024-01-30T11:38:32;96272.88;;;0.14;52.49
9676;BME280;4876;42.656;23.292;2024-01-30T11:40:57;96268.34;;;-0.01;52.99
9676;BME280;4876;42.656;23.292;2024-01-30T11:43:24;96264.38;;;0.00;53.02
9676;BME280;4876;42.656;23.292;2024-01-30T11:45:50;96260.88;;;0.42;52.90
9676;BME280;4876;42.656;23.292;2024-01-30T11:48:16;96257.78;;;0.72;51.74
9676;BME280;4876;42.656;23.292;2024-01-30T11:50:42;96251.06;;;0.14;52.69
9676;BME280;4876;42.656;23.292;2024-01-30T11:53:11;96265.78;;;0.27;51.99
9676;BME280;4876;42.656;23.292;2024-01-30T11:55:36;96251.41;;;0.32;52.60
9676;BME280;4876;42.656;23.292;2024-01-30T11:58:03;96246.97;;;0.35;53.06
9676;BME280;4876;42.656;23.292;2024-01-30T12:00:29;96243.44;;;0.23;52.33
9676;BME280;4876;42.656;23.292;2024-01-30T12:02:56;96235.28;;;0.34;52.89
9676;BME280;4876;42.656;23.292;2024-01-30T12:05:25;96230.63;;;0.40;52.52
9676;BME280;4876;42.656;23.292;2024-01-30T12:07:51;96225.63;;;0.33;52.00
9676;BME280;4876;42.656;23.292;2024-01-30T12:10:17;96221.38;;;0.27;51.85
9676;BME280;4876;42.656;23.292;2024-01-30T12:12:47;96217.66;;;0.30;52.41
9676;BME280;4876;42.656;23.292;2024-01-30T12:15:13;96212.16;;;0.19;52.49
9676;BME280;4876;42.656;23.292;2024-01-30T12:17:39;96203.06;;;0.38;52.55
9676;BME280;4876;42.656;23.292;2024-01-30T12:20:09;96205.41;;;0.62;51.92
9676;BME280;4876;42.656;23.292;2024-01-30T12:22:42;96195.69;;;0.50;51.60
9676;BME280;4876;42.656;23.292;2024-01-30T12:25:09;96185.19;;;0.37;51.59
9676;BME280;4876;42.656;23.292;2024-01-30T12:27:36;96201.88;;;0.50;52.48
9676;BME280;4876;42.656;23.292;2024-01-30T12:30:05;96195.97;;;0.63;51.06
9676;BME280;4876;42.656;23.292;2024-01-30T12:32:31;96198.13;;;0.48;51.04
9676;BME280;4876;42.656;23.292;2024-01-30T12:34:59;96188.53;;;0.75;51.68
9676;BME280;4876;42.656;23.292;2024-01-30T12:37:25;96184.31;;;0.63;51.80
9676;BME280;4876;42.656;23.292;2024-01-30T12:39:53;96182.84;;;0.73;51.44
9676;BME280;4876;42.656;23.292;2024-01-30T12:42:20;96184.34;;;0.79;50.99
9676;BME280;4876;42.656;23.292;2024-01-30T12:44:47;96174.66;;;0.73;51.05
9676;BME280;4876;42.656;23.292;2024-01-30T12:47:13;96184.09;;;0.83;52.07
9676;BME280;4876;42.656;23.292;2024-01-30T12:49:38;96183.88;;;1.08;51.07
9676;BME280;4876;42.656;23.292;2024-01-30T12:52:04;96176.97;;;1.13;50.79
9676;BME280;4876;42.656;23.292;2024-01-30T12:54:30;96176.44;;;1.03;50.59
9676;BME280;4876;42.656;23.292;2024-01-30T12:56:55;96181.91;;;1.03;50.35
9676;BME280;4876;42.656;23.292;2024-01-30T12:59:21;96175.69;;;0.86;49.99
9676;BME280;4876;42.656;23.292;2024-01-30T13:01:47;96176.41;;;0.76;50.89
9676;BME280;4876;42.656;23.292;2024-01-30T13:04:12;96173.19;;;0.83;51.17
9676;BME280;4876;42.656;23.292;2024-01-30T13:06:38;96168.19;;;0.76;51.15
9676;BME280;4876;42.656;23.292;2024-01-30T13:09:03;96169.94;;;0.73;50.93